createdAt,value
2022-11-25T00:00:50.066Z,7.59
2022-11-25T00:05:50.637Z,7.58
2022-11-25T00:10:49.926Z,7.58
2022-11-25T00:15:52.824Z,7.58
2022-11-25T00:20:50.018Z,7.59
2022-11-25T00:25:50.195Z,7.62
2022-11-25T00:30:50.158Z,7.65
2022-11-25T00:35:53.111Z,7.65
2022-11-25T00:41:08.609Z,7.67
2022-11-25T00:45:51.147Z,7.66
2022-11-25T00:50:51.241Z,7.67
2022-11-25T00:56:13.602Z,7.66
2022-11-25T01:00:51.546Z,7.65
2022-11-25T01:14:14.692Z,7.78
2022-11-25T01:16:49.001Z,7.71
2022-11-25T01:21:41.483Z,7.71
2022-11-25T01:27:28.486Z,7.77
2022-11-25T01:31:10.711Z,7.71
2022-11-25T01:36:09.923Z,7.69
2022-11-25T01:41:09.537Z,7.68
2022-11-25T01:46:12.136Z,7.67
2022-11-25T01:51:09.948Z,7.65
2022-11-25T01:56:11.852Z,7.63
2022-11-25T02:01:11.582Z,7.63
2022-11-25T02:06:14.679Z,7.63
2022-11-25T02:11:09.750Z,7.65
2022-11-25T02:16:09.180Z,7.63
2022-11-25T02:21:09.000Z,7.64
2022-11-25T02:26:09.411Z,7.66
2022-11-25T02:31:11.935Z,7.66
2022-11-25T02:36:15.191Z,7.67
2022-11-25T02:41:47.585Z,7.67
2022-11-25T02:46:21.875Z,7.68
2022-11-25T02:51:09.502Z,7.68
2022-11-25T02:56:09.268Z,7.7
2022-11-25T03:01:09.181Z,7.69
2022-11-25T03:06:09.088Z,7.7
2022-11-25T03:11:08.958Z,7.72
2022-11-25T03:16:09.244Z,7.72
2022-11-25T03:21:08.675Z,7.73
2022-11-25T03:26:14.045Z,7.76
2022-11-25T03:31:08.830Z,7.75
2022-11-25T03:36:09.091Z,7.74
2022-11-25T03:41:08.979Z,7.73
2022-11-25T03:46:08.852Z,7.72
2022-11-25T03:51:09.014Z,7.71
2022-11-25T03:56:09.515Z,7.73
2022-11-25T04:01:11.146Z,7.69
2022-11-25T04:06:08.692Z,7.67
2022-11-25T04:11:10.037Z,7.65
2022-11-25T04:16:08.878Z,7.65
2022-11-25T04:21:08.742Z,7.64
2022-11-25T04:26:10.179Z,7.63
2022-11-25T04:31:09.555Z,7.6
2022-11-25T04:36:09.091Z,7.56
2022-11-25T04:41:08.832Z,7.53
2022-11-25T04:46:15.252Z,7.48
2022-11-25T04:51:12.016Z,7.43
2022-11-25T04:56:11.121Z,7.36
2022-11-25T05:01:08.914Z,7.31
2022-11-25T05:06:13.378Z,7.25
2022-11-25T05:11:09.130Z,7.21
2022-11-25T05:16:08.960Z,7.16
2022-11-25T05:21:12.290Z,7.12
2022-11-25T05:26:09.193Z,7.06
2022-11-25T05:31:10.132Z,7
2022-11-25T05:36:08.875Z,6.99
2022-11-25T05:41:13.851Z,6.98
2022-11-25T05:46:12.039Z,6.91
2022-11-25T05:51:09.654Z,6.88
2022-11-25T05:56:09.756Z,6.83
2022-11-25T06:01:10.198Z,6.84
2022-11-25T06:06:17.235Z,6.8
2022-11-25T06:11:36.759Z,6.79
2022-11-25T06:16:13.851Z,6.81
2022-11-25T06:21:09.894Z,6.88
2022-11-25T06:26:16.181Z,6.88
2022-11-25T06:31:16.970Z,6.79
2022-11-25T06:36:15.846Z,6.75
2022-11-25T06:41:09.666Z,6.66
2022-11-25T06:46:13.634Z,6.63
2022-11-25T06:51:11.579Z,6.6
2022-11-25T06:56:15.017Z,6.55
2022-11-25T07:01:11.954Z,6.51
2022-11-25T07:06:08.823Z,6.47
2022-11-25T07:11:12.504Z,6.42
2022-11-25T07:16:10.193Z,6.39
2022-11-25T07:21:12.617Z,6.37
2022-11-25T07:26:12.426Z,6.35
2022-11-25T07:31:28.194Z,6.32
2022-11-25T07:36:12.697Z,6.28
2022-11-25T07:41:15.085Z,6.28
2022-11-25T07:46:26.312Z,6.25
2022-11-25T07:51:08.984Z,6.26
2022-11-25T07:56:09.501Z,6.29
2022-11-25T08:01:10.610Z,6.29
2022-11-25T08:06:11.877Z,6.32
2022-11-25T08:11:09.748Z,6.36
2022-11-25T08:16:09.538Z,6.39
2022-11-25T08:21:09.806Z,6.48
2022-11-25T08:26:11.174Z,6.63
2022-11-25T08:31:13.151Z,6.81
2022-11-25T08:36:09.342Z,6.98
2022-11-25T08:41:12.416Z,7.05
2022-11-25T08:46:10.890Z,7.1
2022-11-25T08:51:11.757Z,7.15
2022-11-25T08:56:08.601Z,7.22
2022-11-25T09:01:10.763Z,7.29
2022-11-25T09:06:11.244Z,7.36
2022-11-25T09:11:09.031Z,7.41
2022-11-25T09:16:09.702Z,7.47
2022-11-25T09:21:11.320Z,7.49
2022-11-25T09:26:10.341Z,7.52
2022-11-25T09:31:14.133Z,7.59
2022-11-25T09:36:09.922Z,7.69
2022-11-25T09:41:12.513Z,7.76
2022-11-25T09:46:25.210Z,7.85
2022-11-25T09:51:12.337Z,7.91
2022-11-25T09:56:14.757Z,7.94
2022-11-25T10:01:09.263Z,7.96
2022-11-25T10:06:11.475Z,8.06
2022-11-25T10:11:15.965Z,8.12
2022-11-25T10:16:11.663Z,8.26
2022-11-25T10:21:09.358Z,8.26
2022-11-25T10:26:16.092Z,8.35
2022-11-25T10:31:10.269Z,8.41
2022-11-25T10:36:11.734Z,8.44
2022-11-25T10:41:08.868Z,8.49
2022-11-25T10:46:12.418Z,8.64
2022-11-25T10:51:17.534Z,8.77
2022-11-25T10:56:13.262Z,8.85
2022-11-25T11:01:17.846Z,8.95
2022-11-25T11:06:08.654Z,9.09
2022-11-25T11:11:19.314Z,9.19
2022-11-25T11:16:08.588Z,9.22
2022-11-25T11:21:10.863Z,9.25
2022-11-25T11:26:11.864Z,9.3
2022-11-25T11:31:11.959Z,9.34
2022-11-25T11:36:14.658Z,9.43
2022-11-25T11:41:18.138Z,9.57
2022-11-25T11:46:18.249Z,9.68
2022-11-25T11:51:12.806Z,9.75
2022-11-25T11:56:34.398Z,9.74
2022-11-25T12:01:15.364Z,9.68
2022-11-25T12:06:09.736Z,9.59
2022-11-25T12:11:13.830Z,9.5
2022-11-25T12:16:15.379Z,9.46
2022-11-25T12:21:11.525Z,9.46
2022-11-25T12:26:12.240Z,9.42
2022-11-25T12:31:16.135Z,9.46
2022-11-25T12:36:15.056Z,9.53
2022-11-25T12:41:12.415Z,9.58
2022-11-25T12:46:15.532Z,9.6
2022-11-25T12:51:14.505Z,9.58
2022-11-25T12:56:16.273Z,9.56
2022-11-25T13:01:18.308Z,9.53
2022-11-25T13:06:22.548Z,9.45
2022-11-25T13:11:20.070Z,9.37
2022-11-25T13:16:10.496Z,9.28
2022-11-25T13:21:14.077Z,9.21
2022-11-25T13:26:19.781Z,9.14
2022-11-25T13:31:19.867Z,9.08
2022-11-25T13:36:19.106Z,9.03
2022-11-25T13:41:18.559Z,8.99
2022-11-25T13:46:11.037Z,8.94
2022-11-25T13:51:23.094Z,8.88
2022-11-25T13:56:21.550Z,8.83
2022-11-25T14:01:20.292Z,8.77
2022-11-25T14:06:21.452Z,8.74
2022-11-25T14:11:21.479Z,8.71
2022-11-25T14:16:15.809Z,8.68
2022-11-25T14:21:12.728Z,8.63
2022-11-25T14:26:41.764Z,8.6
2022-11-25T14:31:11.692Z,8.55
2022-11-25T14:36:14.642Z,8.49
2022-11-25T14:41:11.183Z,8.44
2022-11-25T14:46:20.606Z,8.39
2022-11-25T14:51:10.682Z,8.34
2022-11-25T14:56:09.167Z,8.3
2022-11-25T15:01:10.283Z,8.26
2022-11-25T15:06:09.553Z,8.21
2022-11-25T15:11:17.514Z,8.15
2022-11-25T15:16:11.887Z,8.08
2022-11-25T15:21:09.303Z,8.02
2022-11-25T15:26:18.638Z,7.95
2022-11-25T15:31:20.420Z,7.86
2022-11-25T15:36:09.849Z,7.8
2022-11-25T15:41:12.242Z,7.77
2022-11-25T15:46:10.191Z,7.68
2022-11-25T15:51:10.586Z,7.63
2022-11-25T15:56:10.547Z,7.58
2022-11-25T16:01:10.443Z,7.52
2022-11-25T16:06:22.148Z,7.4
2022-11-25T16:11:21.908Z,7.34
2022-11-25T16:16:34.956Z,7.26
2022-11-25T16:21:32.244Z,7.19
2022-11-25T16:26:25.824Z,7.09
2022-11-25T16:31:08.501Z,7.06
2022-11-25T16:36:09.821Z,7.03
2022-11-25T16:41:12.280Z,6.97
2022-11-25T16:46:09.083Z,6.91
2022-11-25T16:51:12.311Z,6.86
2022-11-25T16:56:08.651Z,6.82
2022-11-25T17:01:08.685Z,6.77
2022-11-25T17:06:21.588Z,6.74
2022-11-25T17:11:08.548Z,6.72
2022-11-25T17:16:09.019Z,6.67
2022-11-25T17:21:08.590Z,6.64
2022-11-25T17:26:08.593Z,6.58
2022-11-25T17:31:08.788Z,6.55
2022-11-25T17:36:10.306Z,6.53
2022-11-25T17:41:10.181Z,6.49
2022-11-25T17:46:10.900Z,6.44
2022-11-25T17:51:08.907Z,6.4
2022-11-25T17:56:16.292Z,6.38
2022-11-25T18:01:08.947Z,6.33
2022-11-25T18:06:08.887Z,6.29
2022-11-25T18:11:10.095Z,6.22
2022-11-25T18:16:09.191Z,6.2
2022-11-25T18:21:08.530Z,6.18
2022-11-25T18:26:08.718Z,6.11
2022-11-25T18:31:09.781Z,6.07
2022-11-25T18:36:09.300Z,6.03
2022-11-25T18:41:08.512Z,6.02
2022-11-25T18:46:11.003Z,6.03
2022-11-25T18:51:08.547Z,5.98
2022-11-25T18:56:09.760Z,5.95
2022-11-25T19:01:14.187Z,5.93
2022-11-25T19:06:18.779Z,5.9
2022-11-25T19:11:10.996Z,5.88
2022-11-25T19:16:11.956Z,5.86
2022-11-25T19:21:08.602Z,5.81
2022-11-25T19:26:11.163Z,5.8
2022-11-25T19:31:09.431Z,5.77
2022-11-25T19:36:09.443Z,5.75
2022-11-25T19:41:09.322Z,5.74
2022-11-25T19:46:11.020Z,5.73
2022-11-25T19:51:11.104Z,5.73
2022-11-25T19:56:10.608Z,5.77
2022-11-25T20:01:08.757Z,5.77
2022-11-25T20:06:09.127Z,5.76
2022-11-25T20:11:08.591Z,5.7
2022-11-25T20:16:13.838Z,5.7
2022-11-25T20:21:09.403Z,5.64
2022-11-25T20:26:08.653Z,5.59
2022-11-25T20:31:08.658Z,5.55
2022-11-25T20:36:10.345Z,5.5
2022-11-25T20:41:08.721Z,5.48
2022-11-25T20:46:09.394Z,5.48
2022-11-25T20:51:10.477Z,5.45
2022-11-25T20:56:08.837Z,5.42
2022-11-25T21:01:09.360Z,5.37
2022-11-25T21:06:15.156Z,5.34
2022-11-25T21:11:08.988Z,5.36
2022-11-25T21:16:08.737Z,5.31
2022-11-25T21:21:14.761Z,5.28
2022-11-25T21:26:10.829Z,5.23
2022-11-25T21:31:11.355Z,5.2
2022-11-25T21:36:13.051Z,5.19
2022-11-25T21:41:09.133Z,5.14
2022-11-25T21:46:10.733Z,5.1
2022-11-25T21:51:09.018Z,5.07
2022-11-25T21:56:15.685Z,5.01
2022-11-25T22:01:09.819Z,5
2022-11-25T22:06:09.729Z,4.97
2022-11-25T22:11:09.757Z,4.93
2022-11-25T22:16:09.099Z,4.93
2022-11-25T22:21:08.910Z,4.89
2022-11-25T22:26:08.645Z,4.9
2022-11-25T22:31:14.556Z,4.89
2022-11-25T22:36:09.166Z,4.86
2022-11-25T22:41:09.823Z,4.83
2022-11-25T22:46:11.750Z,4.8
2022-11-25T22:51:10.481Z,4.77
2022-11-25T22:56:08.774Z,4.76
2022-11-25T23:01:08.753Z,4.75
2022-11-25T23:06:09.645Z,4.75
2022-11-25T23:11:09.177Z,4.73
2022-11-25T23:16:09.128Z,4.76
2022-11-25T23:21:08.458Z,4.72
2022-11-25T23:26:10.386Z,4.73
2022-11-25T23:31:08.561Z,4.73
2022-11-25T23:36:10.651Z,4.73
2022-11-25T23:41:08.421Z,4.74
2022-11-25T23:46:09.846Z,4.71
2022-11-25T23:51:10.740Z,4.71
2022-11-25T23:56:15.101Z,4.71
